Colon, Argentina
Current Conditions -  °F | °C
As of 8:00 AM on Tuesday 21 Oct 2014 (Local Time) from SUSO Reporting Station
Clear Clear  
Wind Chill: 63°   Ceiling: Unl
Heat Index: 63°   Visibility: 6mi
Dew Point: 54°   Wind: 8mph
Humidity: 72%   Direction: 110°ESE
Pressure: 30.12"   Gusts: NA
Location:  32.22°S, 58.13°W
Report Text: SUSO 211100Z 11007KT CAVOK 17/12 Q1020
Loading
Personal Weather Stations






























Interactive Weather Map
Tropical Storm Tracking
New forecast layout! Learn more

10-Day Weather Forecast

Advertisements
Track Severe Weather on mobile